Time;durP1;ratioP1;P1;durP2;ratioP2;P2;SDS_P1;SDS_P2;PMS_P1;PMS_P2;Temp;Humidity;BMP_temperature;BMP_pressure;BME280_temperature;BME280_humidity;BME280_pressure;Samples;Min_cycle;Max_cycle;Signal;HPM_P1;HPM_P2
2022/10/06 00:00:27;;;;;;;;;1.67;0.00;;;;;18.68;60.21;-19707.44;4975260;27;45374;-80
2022/10/06 00:02:53;;;;;;;;;0.67;0.00;;;;;18.57;60.44;-19704.50;4983693;27;45294;-81
2022/10/06 00:05:18;;;;;;;;;0.00;0.00;;;;;18.57;60.44;-19704.50;4980202;28;46006;-81
2022/10/06 00:07:44;;;;;;;;;1.00;0.00;;;;;18.63;60.31;-19706.09;4971745;28;45444;-81
2022/10/06 00:10:09;;;;;;;;;0.00;0.00;;;;;18.49;60.44;-19702.47;4974261;28;45302;-80
2022/10/06 00:12:40;;;;;;;;;0.00;0.00;;;;;18.53;60.37;-19703.41;4974907;28;45386;-80
2022/10/06 00:15:06;;;;;;;;;0.00;0.00;;;;;18.55;60.49;-19703.97;4973128;28;48147;-81
2022/10/06 00:17:32;;;;;;;;;1.67;0.00;;;;;18.54;60.60;-19703.81;4974106;28;45371;-81
2022/10/06 00:19:57;;;;;;;;;3.00;0.00;;;;;18.38;60.40;-19699.41;4985131;27;45353;-81
2022/10/06 00:22:22;;;;;;;;;0.00;0.00;;;;;18.43;60.38;-19700.75;4983547;28;45400;-81
2022/10/06 00:24:48;;;;;;;;;1.67;0.00;;;;;18.37;60.77;-19699.28;4977142;28;45420;-81
2022/10/06 00:27:14;;;;;;;;;0.00;0.00;;;;;18.31;60.93;-19697.69;4976880;28;45346;-80
2022/10/06 00:29:41;;;;;;;;;0.00;0.00;;;;;18.27;60.83;-19696.59;4977369;28;45378;-80
2022/10/06 00:32:08;;;;;;;;;1.00;0.00;;;;;18.20;61.21;-19694.88;4977590;28;45373;-81
2022/10/06 00:34:35;;;;;;;;;0.33;0.00;;;;;18.02;60.66;-19690.19;4983811;28;45986;-80
2022/10/06 00:37:01;;;;;;;;;0.00;0.00;;;;;18.17;61.32;-19693.94;4993876;27;45574;-80
2022/10/06 00:39:26;;;;;;;;;0.00;0.00;;;;;18.10;61.05;-19692.19;4981981;28;45462;-81
2022/10/06 00:41:51;;;;;;;;;0.33;0.00;;;;;18.13;61.33;-19693.00;4977433;28;45364;-81
2022/10/06 00:44:17;;;;;;;;;0.00;0.00;;;;;18.11;61.45;-19692.59;4991250;28;45584;-81
2022/10/06 00:46:48;;;;;;;;;0.00;0.00;;;;;17.97;61.46;-19688.84;4987003;28;45369;-81
2022/10/06 00:49:29;;;;;;;;;0.33;0.00;;;;;17.92;61.29;-19687.50;4977472;28;45389;-80
2022/10/06 00:52:00;;;;;;;;;2.00;1.00;;;;;18.06;61.63;-19691.25;4996336;28;45499;-80
2022/10/06 00:54:27;;;;;;;;;0.33;0.00;;;;;18.06;61.52;-19691.13;4999952;27;45664;-80
2022/10/06 00:56:52;;;;;;;;;1.00;0.00;;;;;18.01;61.55;-19689.94;4978252;28;45426;-80
2022/10/06 00:59:18;;;;;;;;;0.00;0.00;;;;;17.99;61.48;-19689.38;4976819;28;45600;-81
2022/10/06 01:01:58;;;;;;;;;0.33;0.33;;;;;17.89;61.33;-19686.72;4978988;28;45550;-80
2022/10/06 01:04:25;;;;;;;;;0.67;0.00;;;;;18.03;61.19;-19690.47;4991662;28;45684;-80
2022/10/06 01:06:53;;;;;;;;;0.00;0.00;;;;;17.92;61.51;-19687.66;4996147;28;45465;-80
2022/10/06 01:09:21;;;;;;;;;0.00;0.00;;;;;17.96;61.33;-19688.59;4996220;28;45323;-81
2022/10/06 01:11:50;;;;;;;;;0.00;0.00;;;;;17.87;61.61;-19686.31;4988122;28;45539;-81
2022/10/06 01:14:18;;;;;;;;;1.00;0.00;;;;;17.87;61.55;-19686.19;4976494;28;45446;-81
2022/10/06 01:16:48;;;;;;;;;0.00;0.00;;;;;17.85;60.99;-19685.78;4976610;28;45446;-81
2022/10/06 01:19:37;;;;;;;;;0.00;0.00;;;;;17.77;61.77;-19683.63;4959232;28;45355;-81
2022/10/06 01:22:07;;;;;;;;;0.33;0.33;;;;;17.80;61.69;-19684.31;4976645;28;45470;-81
2022/10/06 01:24:33;;;;;;;;;0.00;0.00;;;;;17.78;61.75;-19683.91;4980433;28;45829;-81
2022/10/06 01:27:00;;;;;;;;;0.00;0.00;;;;;17.78;61.99;-19683.78;4996138;28;45461;-81
2022/10/06 01:29:26;;;;;;;;;1.00;1.00;;;;;17.79;61.68;-19684.03;4993225;27;45409;-81
2022/10/06 01:31:51;;;;;;;;;0.67;0.00;;;;;17.71;61.90;-19682.03;4975899;28;45459;-81
2022/10/06 01:34:17;;;;;;;;;0.67;0.00;;;;;17.74;62.07;-19682.81;4959109;28;47230;-81
2022/10/06 01:36:42;;;;;;;;;0.00;0.00;;;;;17.61;61.68;-19679.50;4976377;28;45351;-81
2022/10/06 01:39:08;;;;;;;;;0.00;0.00;;;;;17.67;61.86;-19680.97;4992452;28;45514;-81
2022/10/06 01:41:33;;;;;;;;;1.00;0.00;;;;;17.58;61.93;-19678.53;4996168;28;45357;-81
2022/10/06 01:43:59;;;;;;;;;1.00;0.00;;;;;17.67;62.07;-19680.97;5058272;27;46215;-80
2022/10/06 01:46:24;;;;;;;;;1.00;0.00;;;;;17.61;61.68;-19679.50;4973029;28;45392;-80
2022/10/06 01:48:50;;;;;;;;;0.00;0.00;;;;;17.64;61.65;-19680.16;4979585;28;45589;-81
2022/10/06 01:51:15;;;;;;;;;4.67;0.00;;;;;17.54;61.84;-19677.63;4995928;28;45270;-81
2022/10/06 01:53:41;;;;;;;;;0.00;0.00;;;;;17.54;61.91;-19677.47;5002488;27;45663;-81
2022/10/06 01:56:07;;;;;;;;;0.00;0.00;;;;;17.56;61.91;-19678.00;5006366;27;45483;-81
2022/10/06 01:58:32;;;;;;;;;2.67;1.00;;;;;17.56;61.23;-19678.00;5010952;27;45485;-81
2022/10/06 02:01:06;;;;;;;;;0.00;0.00;;;;;17.56;61.71;-19678.16;4994133;27;45470;-81
2022/10/06 02:03:34;;;;;;;;;0.00;0.00;;;;;17.47;61.48;-19675.75;4985245;28;48343;-81
2022/10/06 02:05:59;;;;;;;;;0.00;0.00;;;;;17.45;61.51;-19675.34;4991900;28;45521;-81
2022/10/06 02:08:25;;;;;;;;;0.00;0.00;;;;;17.44;61.22;-19674.94;4994018;28;45535;-81
2022/10/06 02:10:50;;;;;;;;;3.00;1.33;;;;;17.37;61.34;-19673.19;4976501;28;45538;-81
2022/10/06 02:13:15;;;;;;;;;1.00;1.00;;;;;17.41;61.37;-19674.28;4991778;28;46085;-81
2022/10/06 02:15:41;;;;;;;;;1.00;0.00;;;;;17.44;61.50;-19674.94;4976163;28;45451;-81
2022/10/06 02:18:06;;;;;;;;;1.00;0.00;;;;;17.41;61.23;-19674.28;4996419;28;45408;-81
2022/10/06 02:20:32;;;;;;;;;0.00;0.00;;;;;17.39;61.08;-19673.72;4981555;28;45419;-81
2022/10/06 02:22:57;;;;;;;;;2.33;0.00;;;;;17.38;60.99;-19673.34;4998034;27;47092;-81
2022/10/06 02:25:23;;;;;;;;;0.33;0.00;;;;;17.29;61.13;-19671.19;4993881;28;45579;-81
2022/10/06 02:27:48;;;;;;;;;1.33;0.00;;;;;17.34;61.42;-19672.25;4993816;28;45352;-81
2022/10/06 02:30:14;;;;;;;;;0.33;0.00;;;;;17.28;61.27;-19670.78;4993948;28;45528;-81
2022/10/06 02:32:41;;;;;;;;;0.67;0.00;;;;;17.17;61.17;-19667.97;4974878;28;45587;-81
2022/10/06 02:35:07;;;;;;;;;2.00;0.67;;;;;17.26;61.05;-19670.38;4992127;28;45484;-80
2022/10/06 02:37:33;;;;;;;;;0.00;0.00;;;;;17.23;61.48;-19669.44;4994152;27;45492;-80
2022/10/06 02:39:59;;;;;;;;;2.00;1.00;;;;;17.19;61.46;-19668.50;4993912;28;45567;-81
2022/10/06 02:42:24;;;;;;;;;2.67;0.00;;;;;17.19;60.93;-19668.50;5009080;27;46107;-81
2022/10/06 02:44:51;;;;;;;;;0.67;0.67;;;;;17.12;61.13;-19666.50;4993128;28;45427;-81
2022/10/06 02:47:18;;;;;;;;;0.67;0.67;;;;;17.13;61.22;-19666.91;4975558;28;45418;-79
2022/10/06 02:49:44;;;;;;;;;2.00;0.00;;;;;17.14;60.98;-19667.03;4989451;28;45478;-79
2022/10/06 02:52:10;;;;;;;;;0.00;0.00;;;;;17.10;61.58;-19666.09;4993419;28;47056;-78
2022/10/06 02:54:35;;;;;;;;;1.00;1.00;;;;;16.97;61.29;-19662.75;4993237;27;45461;-78
2022/10/06 02:57:01;;;;;;;;;2.33;1.00;;;;;16.97;61.06;-19662.75;4976014;28;45417;-79
2022/10/06 02:59:26;;;;;;;;;1.67;1.67;;;;;16.94;61.19;-19661.94;4993268;28;45670;-79
2022/10/06 03:01:52;;;;;;;;;1.00;1.00;;;;;16.96;61.31;-19662.50;4993331;28;45350;-79
2022/10/06 03:04:18;;;;;;;;;1.00;0.67;;;;;16.94;61.57;-19661.81;4993167;28;45426;-79
2022/10/06 03:06:43;;;;;;;;;1.00;0.00;;;;;16.86;61.57;-19659.81;4978282;28;45434;-78
2022/10/06 03:09:09;;;;;;;;;2.33;0.00;;;;;16.86;61.27;-19659.94;4993372;28;45587;-78
2022/10/06 03:11:39;;;;;;;;;0.00;0.00;;;;;16.81;61.13;-19658.59;4994778;27;45522;-78
2022/10/06 03:14:05;;;;;;;;;0.67;0.67;;;;;16.86;61.52;-19659.94;4993002;28;45284;-78
2022/10/06 03:16:37;;;;;;;;;0.00;0.00;;;;;16.81;61.78;-19658.59;4989708;28;45374;-78
2022/10/06 03:19:03;;;;;;;;;5.00;1.00;;;;;16.81;61.48;-19658.59;4993717;28;45397;-78
2022/10/06 03:21:31;;;;;;;;;3.00;1.00;;;;;16.58;61.59;-19652.56;4992856;28;46770;-78
2022/10/06 03:23:58;;;;;;;;;2.33;1.00;;;;;16.77;61.17;-19657.53;4991023;27;45496;-78
2022/10/06 03:26:31;;;;;;;;;2.00;0.33;;;;;16.75;61.22;-19657.00;4978581;27;45495;-78
2022/10/06 03:28:56;;;;;;;;;1.33;0.67;;;;;16.72;61.61;-19656.19;4985631;28;45392;-78
2022/10/06 03:31:24;;;;;;;;;2.67;0.67;;;;;16.68;61.64;-19655.25;4992662;28;45498;-78
2022/10/06 03:33:50;;;;;;;;;1.67;1.00;;;;;16.68;61.58;-19655.25;4992728;28;45514;-78
2022/10/06 03:36:19;;;;;;;;;0.00;0.00;;;;;16.59;61.25;-19652.84;4992603;28;45456;-78
2022/10/06 03:38:44;;;;;;;;;0.00;0.00;;;;;16.66;61.45;-19654.72;4993417;28;45407;-78
2022/10/06 03:41:14;;;;;;;;;2.00;0.67;;;;;16.64;61.90;-19654.19;4992517;28;45368;-78
2022/10/06 03:43:42;;;;;;;;;0.33;0.33;;;;;16.62;61.67;-19653.66;5048067;27;45567;-78
2022/10/06 03:46:11;;;;;;;;;2.33;1.33;;;;;16.48;61.39;-19649.91;4982455;28;45480;-78
2022/10/06 03:48:37;;;;;;;;;2.00;0.33;;;;;16.56;61.42;-19651.91;4975064;28;45311;-78
2022/10/06 03:51:14;;;;;;;;;1.33;1.00;;;;;16.54;61.62;-19651.50;4956702;28;46221;-78
2022/10/06 03:53:46;;;;;;;;;4.00;1.67;;;;;16.48;61.72;-19649.91;4974320;28;45348;-78
2022/10/06 03:56:11;;;;;;;;;0.67;0.00;;;;;16.50;61.51;-19650.28;4978469;28;45395;-78
2022/10/06 03:58:39;;;;;;;;;2.67;1.00;;;;;16.37;61.69;-19647.09;4974472;28;45430;-78
2022/10/06 04:01:17;;;;;;;;;5.00;1.00;;;;;16.46;62.09;-19649.50;5015102;27;45580;-78
2022/10/06 04:03:43;;;;;;;;;1.00;1.00;;;;;16.43;61.87;-19648.69;4989483;28;45481;-78
2022/10/06 04:06:11;;;;;;;;;0.00;0.00;;;;;16.36;61.84;-19646.81;4994210;28;45313;-78
2022/10/06 04:08:37;;;;;;;;;0.33;0.33;;;;;16.39;62.22;-19647.50;4994332;28;45361;-78
2022/10/06 04:11:12;;;;;;;;;3.33;1.00;;;;;16.30;61.92;-19645.06;4993558;28;46449;-78
2022/10/06 04:13:39;;;;;;;;;0.33;0.33;;;;;16.36;62.18;-19646.81;4986388;28;45272;-78
2022/10/06 04:16:16;;;;;;;;;0.00;0.00;;;;;16.32;62.23;-19645.75;4974021;28;45562;-78
2022/10/06 04:18:43;;;;;;;;;0.00;0.00;;;;;16.31;62.28;-19645.34;4989212;27;45404;-79
2022/10/06 04:21:09;;;;;;;;;1.00;1.00;;;;;16.17;62.02;-19641.84;4974076;28;46461;-78
2022/10/06 04:23:37;;;;;;;;;0.00;0.00;;;;;16.25;61.99;-19644.00;4981255;28;45793;-78
2022/10/06 04:26:08;;;;;;;;;2.00;1.00;;;;;16.15;61.74;-19641.31;4993643;28;45411;-78
2022/10/06 04:28:35;;;;;;;;;1.00;1.00;;;;;16.10;62.21;-19639.97;4993985;28;45409;-78
2022/10/06 04:31:01;;;;;;;;;5.67;1.00;;;;;16.23;62.44;-19643.34;4993406;28;46198;-78
2022/10/06 04:33:28;;;;;;;;;0.33;0.33;;;;;15.97;62.30;-19636.63;4992685;28;45282;-79
2022/10/06 04:36:05;;;;;;;;;2.33;0.67;;;;;16.17;62.15;-19641.72;4994838;27;45561;-78
2022/10/06 04:38:32;;;;;;;;;2.00;1.67;;;;;16.15;62.69;-19641.19;4974314;28;45252;-78
2022/10/06 04:41:04;;;;;;;;;1.67;0.33;;;;;16.10;62.80;-19639.97;4973499;28;45622;-78
2022/10/06 04:43:29;;;;;;;;;1.33;0.33;;;;;16.09;62.73;-19639.72;4975745;28;45449;-78
2022/10/06 04:45:57;;;;;;;;;0.67;0.67;;;;;16.02;62.97;-19637.84;4973873;28;45325;-78
2022/10/06 04:48:23;;;;;;;;;1.00;1.00;;;;;15.96;63.00;-19636.34;4974091;28;45456;-78
2022/10/06 04:50:57;;;;;;;;;2.00;1.00;;;;;15.97;62.89;-19636.63;4985254;28;47145;-78
2022/10/06 04:53:23;;;;;;;;;5.00;1.00;;;;;15.91;62.86;-19635.03;5043204;27;45376;-78
2022/10/06 04:55:58;;;;;;;;;1.33;1.00;;;;;15.90;62.86;-19634.75;4973705;28;45373;-78
2022/10/06 04:58:23;;;;;;;;;0.67;0.33;;;;;15.94;63.08;-19635.81;4981703;28;45343;-77
2022/10/06 05:00:48;;;;;;;;;3.33;1.00;;;;;15.91;63.12;-19635.03;4989150;27;45714;-78
2022/10/06 05:03:14;;;;;;;;;1.00;1.00;;;;;15.84;63.01;-19633.16;5016461;27;45450;-77
2022/10/06 05:05:39;;;;;;;;;1.67;0.67;;;;;15.85;63.42;-19633.28;4991994;27;45479;-76
2022/10/06 05:08:04;;;;;;;;;1.67;0.67;;;;;15.79;63.43;-19631.81;5012347;27;45443;-77
2022/10/06 05:10:30;;;;;;;;;4.67;1.00;;;;;15.83;63.04;-19632.88;4986404;28;45563;-79
2022/10/06 05:12:56;;;;;;;;;1.67;1.00;;;;;15.82;63.14;-19632.59;4992803;28;45465;-84
2022/10/06 05:15:21;;;;;;;;;7.33;5.33;;;;;15.68;63.00;-19628.97;4986788;28;45344;-82
2022/10/06 05:17:46;;;;;;;;;3.33;1.00;;;;;15.78;63.08;-19631.66;4988931;28;45674;-82
2022/10/06 05:20:12;;;;;;;;;2.00;1.67;;;;;15.75;63.37;-19630.88;4992389;27;51285;-82
2022/10/06 05:22:37;;;;;;;;;1.00;1.00;;;;;15.77;63.28;-19631.41;5000191;27;45507;-79
2022/10/06 05:25:03;;;;;;;;;4.00;2.67;;;;;15.62;63.35;-19627.38;4975455;28;45759;-82
2022/10/06 05:27:29;;;;;;;;;4.33;0.67;;;;;15.72;63.63;-19629.94;4991308;27;45462;-77
2022/10/06 05:29:54;;;;;;;;;1.67;1.67;;;;;15.69;63.63;-19629.13;4989019;28;45655;-80
2022/10/06 05:32:19;;;;;;;;;1.67;0.00;;;;;15.69;63.88;-19629.13;4979654;28;45539;-76
2022/10/06 05:34:45;;;;;;;;;3.00;1.00;;;;;15.61;63.63;-19627.09;4978933;28;45974;-86
2022/10/06 05:37:10;;;;;;;;;2.00;2.00;;;;;15.68;63.73;-19628.97;5003763;28;45608;-78
2022/10/06 05:39:35;;;;;;;;;2.33;1.33;;;;;15.67;63.94;-19628.72;5001369;28;45486;-91
2022/10/06 05:42:01;;;;;;;;;0.67;0.67;;;;;15.62;64.01;-19627.50;4997359;28;45487;-85
2022/10/06 05:44:26;;;;;;;;;1.67;1.67;;;;;15.57;63.96;-19626.16;4997407;28;45397;-83
2022/10/06 05:46:51;;;;;;;;;3.00;3.00;;;;;15.55;63.91;-19625.63;5000793;28;45541;-82
2022/10/06 05:49:17;;;;;;;;;5.33;5.33;;;;;15.56;64.18;-19625.75;4981242;28;48115;-77
2022/10/06 05:51:42;;;;;;;;;2.00;1.00;;;;;15.56;64.10;-19625.75;5010026;27;45342;-77
2022/10/06 05:54:07;;;;;;;;;5.67;2.00;;;;;15.56;64.17;-19625.75;4988733;28;45709;-78
2022/10/06 05:56:35;;;;;;;;;2.33;2.33;;;;;15.57;64.05;-19626.16;5022630;27;46782;-77
2022/10/06 05:59:01;;;;;;;;;2.67;1.00;;;;;15.54;64.07;-19625.34;5000459;28;45624;-78
2022/10/06 06:01:32;;;;;;;;;1.67;1.67;;;;;15.55;63.96;-19625.63;5000840;28;45365;-78
2022/10/06 06:04:01;;;;;;;;;1.67;0.67;;;;;15.57;63.90;-19626.03;5003938;27;45490;-78
2022/10/06 06:06:27;;;;;;;;;1.67;1.33;;;;;15.56;63.97;-19625.75;4997103;28;45407;-78
2022/10/06 06:08:56;;;;;;;;;3.67;1.00;;;;;15.56;64.40;-19625.75;4995630;28;46409;-78
2022/10/06 06:11:25;;;;;;;;;2.33;1.00;;;;;15.54;64.33;-19625.34;5028244;27;45447;-78
2022/10/06 06:13:51;;;;;;;;;0.67;0.67;;;;;15.57;64.30;-19626.03;5006118;27;45421;-78
2022/10/06 06:16:17;;;;;;;;;2.00;1.67;;;;;15.60;63.95;-19626.97;5050988;27;45365;-77
2022/10/06 06:18:42;;;;;;;;;2.00;1.00;;;;;15.56;64.05;-19625.75;4994085;28;46230;-77
2022/10/06 06:21:09;;;;;;;;;2.33;0.67;;;;;15.52;64.39;-19624.81;5029778;27;45305;-78
2022/10/06 06:23:40;;;;;;;;;3.67;1.33;;;;;15.52;64.33;-19624.69;5045520;27;45452;-78
2022/10/06 06:26:11;;;;;;;;;3.33;1.00;;;;;15.55;64.18;-19625.50;5027757;27;45345;-79
2022/10/06 06:28:36;;;;;;;;;2.00;1.00;;;;;15.57;64.27;-19626.03;4998867;27;48488;-77
2022/10/06 06:31:08;;;;;;;;;0.67;0.67;;;;;15.56;64.22;-19625.75;5007460;27;45408;-81
2022/10/06 06:33:39;;;;;;;;;1.00;1.00;;;;;15.52;64.41;-19624.81;4994644;28;45320;-81
2022/10/06 06:36:13;;;;;;;;;2.00;1.67;;;;;15.57;64.25;-19626.16;5006948;28;45382;-81
2022/10/06 06:38:39;;;;;;;;;3.00;1.00;;;;;15.60;64.44;-19626.84;5008009;28;45414;-79
2022/10/06 06:41:12;;;;;;;;;2.00;2.00;;;;;15.54;64.67;-19625.34;5035754;27;45273;-86
2022/10/06 06:43:37;;;;;;;;;6.67;4.67;;;;;15.54;64.38;-19625.22;5058265;27;45439;-87
2022/10/06 06:46:03;;;;;;;;;6.33;2.67;;;;;15.61;64.54;-19627.25;5066139;27;45401;-86
2022/10/06 06:48:28;;;;;;;;;4.00;3.00;;;;;15.63;65.22;-19627.78;4983694;28;46938;-87
2022/10/06 06:50:56;;;;;;;;;5.00;2.67;;;;;15.66;65.11;-19628.31;5006553;28;45372;-88
2022/10/06 06:53:21;;;;;;;;;3.67;3.00;;;;;15.68;64.98;-19628.97;4990596;28;45437;-78
2022/10/06 06:55:50;;;;;;;;;0.67;0.67;;;;;15.69;65.01;-19629.25;5009469;28;45393;-78
2022/10/06 06:58:20;;;;;;;;;5.67;2.67;;;;;15.71;64.58;-19629.78;4993839;28;46719;-78
2022/10/06 07:00:47;;;;;;;;;2.00;2.00;;;;;15.57;64.70;-19626.16;5021152;27;45844;-78
2022/10/06 07:03:14;;;;;;;;;6.33;6.33;;;;;15.75;64.67;-19630.72;5037322;27;45360;-78
2022/10/06 07:05:41;;;;;;;;;2.67;2.33;;;;;15.74;64.65;-19630.47;5055487;27;45475;-78
2022/10/06 07:08:09;;;;;;;;;4.00;1.67;;;;;15.81;64.57;-19632.47;5007481;27;46153;-77
2022/10/06 07:10:36;;;;;;;;;2.00;2.00;;;;;15.86;64.25;-19633.56;4995415;28;45480;-79
2022/10/06 07:13:01;;;;;;;;;1.67;1.67;;;;;15.76;63.83;-19631.13;4996825;27;45360;-74
2022/10/06 07:26:22;;;;;;;;;2.00;2.00;;;;;16.06;63.90;-19638.78;5031816;27;45446;-73
2022/10/06 07:28:48;;;;;;;;;1.00;1.00;;;;;16.14;63.92;-19641.06;5054968;27;45365;-73
2022/10/06 07:31:16;;;;;;;;;1.67;0.33;;;;;16.11;63.25;-19640.25;4998116;27;45374;-73
2022/10/06 07:33:41;;;;;;;;;4.67;3.00;;;;;16.32;63.74;-19645.59;5098144;27;45441;-73
2022/10/06 07:36:07;;;;;;;;;3.00;3.00;;;;;16.40;63.04;-19647.75;4995098;27;45278;-73
2022/10/06 07:38:33;;;;;;;;;3.33;2.00;;;;;16.53;62.61;-19651.09;4994621;28;45396;-73
2022/10/06 07:40:58;;;;;;;;;2.00;2.00;;;;;16.50;62.40;-19650.44;4978529;28;45936;-73
2022/10/06 07:43:24;;;;;;;;;2.00;1.00;;;;;16.67;62.33;-19654.84;4994482;28;45321;-73
2022/10/06 07:45:49;;;;;;;;;2.00;1.00;;;;;16.75;62.21;-19657.00;4994803;28;45401;-73
2022/10/06 07:48:20;;;;;;;;;3.67;1.00;;;;;16.82;62.16;-19658.88;4976977;28;46078;-73
2022/10/06 07:50:48;;;;;;;;;3.33;1.00;;;;;16.90;61.91;-19660.75;4996880;27;45437;-73
2022/10/06 07:53:15;;;;;;;;;2.67;2.00;;;;;16.99;61.42;-19663.16;4994061;28;45239;-75
2022/10/06 07:55:44;;;;;;;;;2.00;2.00;;;;;17.05;61.57;-19664.91;4994407;28;45381;-73
2022/10/06 07:58:18;;;;;;;;;3.67;1.00;;;;;17.20;61.21;-19668.66;4987954;27;47381;-73
2022/10/06 08:00:44;;;;;;;;;3.00;1.00;;;;;17.24;60.94;-19669.72;4998081;27;45454;-74
2022/10/06 08:03:13;;;;;;;;;4.00;2.00;;;;;17.26;61.20;-19670.25;4997277;27;45480;-73
2022/10/06 08:05:39;;;;;;;;;4.00;0.00;;;;;17.20;60.53;-19668.78;4994351;28;45320;-73
2022/10/06 08:08:05;;;;;;;;;3.67;2.00;;;;;17.39;60.42;-19673.59;5012042;27;47622;-73
2022/10/06 08:10:30;;;;;;;;;2.00;1.00;;;;;17.35;60.37;-19672.53;5097332;27;45452;-78
2022/10/06 08:12:56;;;;;;;;;3.33;2.00;;;;;17.54;60.42;-19677.47;5097343;27;45450;-73
2022/10/06 08:15:21;;;;;;;;;2.00;0.33;;;;;17.62;60.44;-19679.75;5037864;28;45437;-73
2022/10/06 08:17:46;;;;;;;;;1.67;1.67;;;;;17.59;60.84;-19678.81;4993583;28;45377;-73
2022/10/06 08:20:14;;;;;;;;;1.00;1.00;;;;;17.79;60.13;-19684.16;5031702;27;45324;-71
2022/10/06 08:22:40;;;;;;;;;0.00;0.00;;;;;17.91;59.65;-19687.25;5002436;28;45553;-71
2022/10/06 08:25:08;;;;;;;;;1.33;0.33;;;;;17.89;59.79;-19686.72;4970357;28;45469;-71
2022/10/06 08:27:35;;;;;;;;;2.00;1.00;;;;;17.83;59.66;-19685.25;4986362;28;46525;-72
2022/10/06 08:30:01;;;;;;;;;3.00;0.00;;;;;18.01;59.40;-19689.94;4972625;28;45767;-72
2022/10/06 08:32:26;;;;;;;;;0.00;0.00;;;;;18.06;59.76;-19691.13;4990021;27;45597;-73
2022/10/06 08:34:51;;;;;;;;;5.00;1.00;;;;;18.10;59.95;-19692.34;4986983;28;45521;-73
2022/10/06 08:37:27;;;;;;;;;1.00;1.00;;;;;18.17;58.99;-19694.06;4980130;28;45364;-75
2022/10/06 08:39:53;;;;;;;;;5.00;4.33;;;;;18.24;59.18;-19695.81;4997894;28;45721;-74
2022/10/06 08:42:47;;;;;;;;;2.00;1.00;;;;;18.32;59.76;-19698.06;4997189;28;45537;-74
2022/10/06 08:45:25;;;;;;;;;1.00;0.33;;;;;18.40;59.02;-19700.09;4993770;28;45762;-71
2022/10/06 08:48:12;;;;;;;;;1.33;1.00;;;;;18.45;58.86;-19701.41;4996112;28;46374;-75
2022/10/06 08:50:59;;;;;;;;;1.00;1.00;;;;;18.40;58.02;-19700.09;5002390;27;45461;-72
2022/10/06 08:53:37;;;;;;;;;2.00;1.00;;;;;18.52;59.08;-19703.16;5009333;28;45464;-72
2022/10/06 08:56:16;;;;;;;;;2.00;0.67;;;;;18.56;58.50;-19704.34;5089176;27;45393;-72
2022/10/06 08:58:51;;;;;;;;;2.00;0.33;;;;;18.65;58.83;-19706.63;5021481;27;46163;-72
2022/10/06 09:01:22;;;;;;;;;6.00;4.00;;;;;18.74;58.21;-19708.91;5018779;27;45447;-72
2022/10/06 09:03:50;;;;;;;;;4.00;1.00;;;;;18.85;57.94;-19711.72;5001859;27;45489;-72
2022/10/06 09:06:38;;;;;;;;;4.33;1.00;;;;;18.87;58.48;-19712.25;4996364;27;45447;-71
2022/10/06 09:09:40;;;;;;;;;2.00;0.67;;;;;18.92;59.49;-19713.72;5013537;27;46483;-72
2022/10/06 09:12:38;;;;;;;;;1.67;1.00;;;;;18.90;58.79;-19713.19;4998665;28;45427;-74
2022/10/06 09:15:37;;;;;;;;;3.00;0.33;;;;;19.06;58.15;-19717.31;5014357;28;45385;-74
2022/10/06 09:18:15;;;;;;;;;1.67;1.67;;;;;19.18;58.27;-19720.38;4998858;28;45316;-72
2022/10/06 09:21:02;;;;;;;;;1.33;1.33;;;;;19.32;58.93;-19724.13;4998157;27;48406;-75
2022/10/06 09:23:49;;;;;;;;;2.00;1.00;;;;;19.43;57.96;-19726.78;5011180;27;45262;-75
2022/10/06 09:26:17;;;;;;;;;2.00;1.00;;;;;19.62;57.10;-19731.88;4996187;28;45332;-74
2022/10/06 09:28:46;;;;;;;;;2.33;0.00;;;;;19.78;56.92;-19736.16;5000146;27;45350;-76
2022/10/06 09:31:20;;;;;;;;;2.00;1.00;;;;;19.77;56.45;-19735.88;4992392;28;45478;-76
2022/10/06 09:33:45;;;;;;;;;3.33;2.00;;;;;20.11;55.96;-19744.53;4993664;27;45468;-86
2022/10/06 09:36:11;;;;;;;;;1.00;1.00;;;;;20.54;55.26;-19755.88;5001450;27;45389;-82
2022/10/06 09:38:54;;;;;;;;;4.00;1.33;;;;;21.73;53.43;-19786.78;5008070;27;45474;-81
2022/10/06 09:41:39;;;;;;;;;0.00;0.00;;;;;22.43;51.28;-19805.00;4987289;27;45917;-81
2022/10/06 09:44:25;;;;;;;;;1.00;1.00;;;;;23.32;50.47;-19828.00;4995599;28;45408;-81
2022/10/06 09:46:51;;;;;;;;;1.50;0.00;;;;;24.11;48.05;-19848.56;4986891;28;45418;-81
2022/10/06 09:49:24;;;;;;;;;1.00;1.00;;;;;24.67;47.05;-19863.03;4991664;28;45457;-81
2022/10/06 09:52:15;;;;;;;;;3.00;1.00;;;;;25.31;45.74;-19879.44;4990532;28;46709;-80
2022/10/06 09:54:42;;;;;;;;;3.25;0.75;;;;;25.95;44.23;-19896.13;5009752;28;45415;-82
2022/10/06 09:57:19;;;;;;;;;1.75;0.75;;;;;26.70;43.71;-19915.56;4999035;27;45691;-82
2022/10/06 09:59:46;;;;;;;;;1.25;0.00;;;;;27.43;41.90;-19934.19;4997708;27;45584;-87
2022/10/06 10:02:29;;;;;;;;;1.25;0.25;;;;;27.83;41.97;-19944.63;5009143;27;45596;-82
2022/10/06 10:04:56;;;;;;;;;0.00;0.00;;;;;28.24;40.43;-19955.19;5054573;27;45380;-80
2022/10/06 10:07:28;;;;;;;;;4.00;0.00;;;;;28.81;39.03;-19969.81;5016471;27;45379;-82
2022/10/06 10:10:22;;;;;;;;;1.00;1.00;;;;;29.20;38.69;-19637.19;5035053;28;45411;-84
2022/10/06 10:12:53;;;;;;;;;0.25;0.25;;;;;30.22;37.75;-18297.06;5065867;27;48186;-78
2022/10/06 10:15:19;;;;;;;;;1.00;1.00;;;;;30.49;36.25;-15569.41;4990304;28;45401;-82
2022/10/06 10:17:50;;;;;;;;;0.00;0.00;;;;;30.70;36.15;-14205.19;4984601;27;45447;-82
2022/10/06 10:20:27;;;;;;;;;4.00;1.00;;;;;31.14;35.73;-13870.16;4972284;27;47105;-83
2022/10/06 10:22:57;;;;;;;;;3.00;0.00;;;;;31.44;35.18;-12161.91;5000814;27;46062;-87
2022/10/06 10:25:43;;;;;;;;;2.25;0.25;;;;;32.03;34.13;-10111.25;5021442;27;45703;-88
2022/10/06 10:28:22;;;;;;;;;0.25;0.25;;;;;32.45;33.88;-7710.94;5027419;27;45591;-85
2022/10/06 10:30:54;;;;;;;;;1.50;1.00;;;;;32.78;33.07;-4273.53;4972899;27;45564;-89
2022/10/06 10:33:35;;;;;;;;;0.00;0.00;;;;;32.92;33.02;-1519.25;5009171;27;45716;-84
2022/10/06 10:36:04;;;;;;;;;2.00;0.00;;;;;33.27;31.88;3999.72;5025828;27;45488;-78
2022/10/06 10:38:30;;;;;;;;;0.75;0.75;;;;;33.32;31.47;9437.34;5010139;27;45431;-79
2022/10/06 10:41:09;;;;;;;;;1.00;1.00;;;;;33.38;30.75;14156.41;5021805;27;45595;-77
2022/10/06 10:43:50;;;;;;;;;0.00;0.00;;;;;33.65;30.61;17413.78;4999712;27;46693;-80
2022/10/06 10:46:44;;;;;;;;;2.00;0.50;;;;;33.43;30.90;23527.44;4983608;27;45547;-85
2022/10/06 10:49:21;;;;;;;;;0.00;0.00;;;;;33.58;29.74;28739.56;5020139;27;45380;-82
2022/10/06 10:52:26;;;;;;;;;0.50;0.00;;;;;33.55;29.81;31328.81;5042240;27;45358;-83
2022/10/06 10:55:16;;;;;;;;;1.00;1.00;;;;;33.51;29.19;34350.53;5054526;28;46425;-84
2022/10/06 10:57:43;;;;;;;;;0.25;0.25;;;;;33.60;29.49;36245.97;5063115;27;45380;-85
2022/10/06 11:00:24;;;;;;;;;0.00;0.00;;;;;33.71;29.93;36451.34;5054811;28;45449;-84
2022/10/06 11:02:53;;;;;;;;;0.00;0.00;;;;;33.65;28.42;39174.50;5058586;27;45480;-84
2022/10/06 11:05:35;;;;;;;;;1.50;0.00;;;;;33.10;28.43;43388.19;5057109;28;47180;-90
2022/10/06 11:08:15;;;;;;;;;1.50;0.00;;;;;32.20;29.39;45850.28;5041005;28;45576;-82
2022/10/06 11:10:48;;;;;;;;;0.00;0.00;;;;;31.82;30.19;45820.66;5036245;28;45550;-76
2022/10/06 11:13:32;;;;;;;;;0.50;0.00;;;;;31.80;30.00;45612.44;5053741;28;45517;-75
2022/10/06 11:16:21;;;;;;;;;0.25;0.00;;;;;31.64;30.80;45151.63;5053104;28;47607;-77
2022/10/06 11:19:11;;;;;;;;;0.00;0.00;;;;;31.83;30.52;45696.78;5051294;28;45337;-76
2022/10/06 11:21:56;;;;;;;;;0.00;0.00;;;;;31.78;29.68;46752.84;5055073;28;45507;-76
2022/10/06 11:24:40;;;;;;;;;3.00;0.00;;;;;31.79;30.07;46887.31;5054929;28;45507;-76
2022/10/06 11:27:13;;;;;;;;;1.00;1.00;;;;;31.76;29.24;48797.13;5054093;28;46140;-76
2022/10/06 11:29:56;;;;;;;;;0.00;0.00;;;;;31.70;29.76;48710.41;5043922;27;45467;-80
2022/10/06 11:32:24;;;;;;;;;0.00;0.00;;;;;31.68;29.31;49813.34;5012154;27;45484;-77
2022/10/06 11:34:51;;;;;;;;;1.25;0.25;;;;;31.53;28.80;51153.13;5006335;28;45511;-76
2022/10/06 11:37:31;;;;;;;;;0.00;0.00;;;;;31.23;29.61;51472.84;4995955;28;46104;-77
2022/10/06 11:40:22;;;;;;;;;0.00;0.00;;;;;30.95;28.40;53847.34;5000194;28;45361;-82
2022/10/06 11:43:04;;;;;;;;;1.00;1.00;;;;;30.60;28.54;54680.50;4991417;28;45380;-86
2022/10/06 11:45:58;;;;;;;;;0.00;0.00;;;;;30.33;28.79;54918.69;5003170;27;45432;-85
2022/10/06 11:48:29;;;;;;;;;0.00;0.00;;;;;30.16;29.81;54900.28;4994276;28;46177;-84
2022/10/06 11:51:16;;;;;;;;;0.00;0.00;;;;;29.95;29.41;55405.75;4993475;28;45381;-85